sensor_id;sensor_type;location;lat;lon;timestamp;temperature;humidity
5554;DHT22;2800;49.528;8.666;2022-08-25T00:02:19;23.30;99.90
5554;DHT22;2800;49.528;8.666;2022-08-25T00:04:45;23.30;99.90
5554;DHT22;2800;49.528;8.666;2022-08-25T00:07:11;23.30;99.90
5554;DHT22;2800;49.528;8.666;2022-08-25T00:09:36;23.20;99.90
5554;DHT22;2800;49.528;8.666;2022-08-25T00:12:04;23.20;99.90
5554;DHT22;2800;49.528;8.666;2022-08-25T00:14:36;23.20;99.90
5554;DHT22;2800;49.528;8.666;2022-08-25T00:17:03;23.20;99.90
5554;DHT22;2800;49.528;8.666;2022-08-25T00:19:31;23.20;99.90
5554;DHT22;2800;49.528;8.666;2022-08-25T00:21:58;23.20;99.90
5554;DHT22;2800;49.528;8.666;2022-08-25T00:24:25;23.30;99.90
5554;DHT22;2800;49.528;8.666;2022-08-25T00:26:53;23.20;99.90
5554;DHT22;2800;49.528;8.666;2022-08-25T00:29:20;23.10;99.90
5554;DHT22;2800;49.528;8.666;2022-08-25T00:31:46;23.10;99.90
5554;DHT22;2800;49.528;8.666;2022-08-25T00:34:18;23.00;99.90
5554;DHT22;2800;49.528;8.666;2022-08-25T00:36:44;23.00;99.90
5554;DHT22;2800;49.528;8.666;2022-08-25T00:39:11;22.90;99.90
5554;DHT22;2800;49.528;8.666;2022-08-25T00:41:39;22.80;99.90
5554;DHT22;2800;49.528;8.666;2022-08-25T00:44:08;22.70;99.90
5554;DHT22;2800;49.528;8.666;2022-08-25T00:46:55;22.80;99.90
5554;DHT22;2800;49.528;8.666;2022-08-25T00:52:27;22.70;99.90
5554;DHT22;2800;49.528;8.666;2022-08-25T00:55:11;22.60;99.90
5554;DHT22;2800;49.528;8.666;2022-08-25T00:57:53;22.60;99.90
5554;DHT22;2800;49.528;8.666;2022-08-25T01:00:33;22.60;99.90
5554;DHT22;2800;49.528;8.666;2022-08-25T01:02:59;22.60;99.90
5554;DHT22;2800;49.528;8.666;2022-08-25T01:05:26;22.70;99.90
5554;DHT22;2800;49.528;8.666;2022-08-25T01:07:52;22.60;99.90
5554;DHT22;2800;49.528;8.666;2022-08-25T01:10:21;22.50;99.90
5554;DHT22;2800;49.528;8.666;2022-08-25T01:12:47;22.50;99.90
5554;DHT22;2800;49.528;8.666;2022-08-25T01:15:13;22.50;99.90
5554;DHT22;2800;49.528;8.666;2022-08-25T01:17:51;22.50;99.90
5554;DHT22;2800;49.528;8.666;2022-08-25T01:20:20;22.40;99.90
5554;DHT22;2800;49.528;8.666;2022-08-25T01:22:47;22.40;99.90
5554;DHT22;2800;49.528;8.666;2022-08-25T01:25:51;22.30;99.90
5554;DHT22;2800;49.528;8.666;2022-08-25T01:28:18;22.30;99.90
5554;DHT22;2800;49.528;8.666;2022-08-25T01:30:44;22.20;99.90
5554;DHT22;2800;49.528;8.666;2022-08-25T01:33:11;22.30;99.90
5554;DHT22;2800;49.528;8.666;2022-08-25T01:35:39;22.30;99.90
5554;DHT22;2800;49.528;8.666;2022-08-25T01:38:05;22.30;99.90
5554;DHT22;2800;49.528;8.666;2022-08-25T01:40:32;22.20;99.90
5554;DHT22;2800;49.528;8.666;2022-08-25T01:43:16;22.20;99.90
5554;DHT22;2800;49.528;8.666;2022-08-25T01:45:47;22.10;99.90
5554;DHT22;2800;49.528;8.666;2022-08-25T01:48:14;22.10;99.90
5554;DHT22;2800;49.528;8.666;2022-08-25T01:50:41;22.00;99.90
5554;DHT22;2800;49.528;8.666;2022-08-25T01:53:12;22.00;99.90
5554;DHT22;2800;49.528;8.666;2022-08-25T01:55:42;22.00;99.90
5554;DHT22;2800;49.528;8.666;2022-08-25T01:58:28;22.00;99.90
5554;DHT22;2800;49.528;8.666;2022-08-25T02:00:57;22.00;99.90
5554;DHT22;2800;49.528;8.666;2022-08-25T02:03:24;22.00;99.90
5554;DHT22;2800;49.528;8.666;2022-08-25T02:05:50;21.90;99.90
5554;DHT22;2800;49.528;8.666;2022-08-25T02:08:16;22.00;99.90
5554;DHT22;2800;49.528;8.666;2022-08-25T02:10:42;21.90;99.90
5554;DHT22;2800;49.528;8.666;2022-08-25T02:13:08;21.80;99.90
5554;DHT22;2800;49.528;8.666;2022-08-25T02:15:39;21.80;99.90
5554;DHT22;2800;49.528;8.666;2022-08-25T02:18:05;21.80;99.90
5554;DHT22;2800;49.528;8.666;2022-08-25T02:20:31;21.70;99.90
5554;DHT22;2800;49.528;8.666;2022-08-25T02:22:56;21.60;99.90
5554;DHT22;2800;49.528;8.666;2022-08-25T02:25:22;21.60;99.90
5554;DHT22;2800;49.528;8.666;2022-08-25T02:27:47;21.50;99.90
5554;DHT22;2800;49.528;8.666;2022-08-25T02:30:14;21.70;99.90
5554;DHT22;2800;49.528;8.666;2022-08-25T02:32:40;21.70;99.90
5554;DHT22;2800;49.528;8.666;2022-08-25T02:35:07;21.60;99.90
5554;DHT22;2800;49.528;8.666;2022-08-25T02:37:33;21.70;99.90
5554;DHT22;2800;49.528;8.666;2022-08-25T02:39:59;21.60;99.90
5554;DHT22;2800;49.528;8.666;2022-08-25T02:42:25;21.60;99.90
5554;DHT22;2800;49.528;8.666;2022-08-25T02:44:51;21.60;99.90
5554;DHT22;2800;49.528;8.666;2022-08-25T02:47:17;21.80;99.90
5554;DHT22;2800;49.528;8.666;2022-08-25T02:49:42;21.90;99.90
5554;DHT22;2800;49.528;8.666;2022-08-25T02:52:08;21.90;99.90
5554;DHT22;2800;49.528;8.666;2022-08-25T02:54:35;22.00;99.90
5554;DHT22;2800;49.528;8.666;2022-08-25T02:57:00;21.90;99.90
5554;DHT22;2800;49.528;8.666;2022-08-25T02:59:26;21.70;99.90
5554;DHT22;2800;49.528;8.666;2022-08-25T03:01:51;21.50;99.90
5554;DHT22;2800;49.528;8.666;2022-08-25T03:04:17;21.40;99.90
5554;DHT22;2800;49.528;8.666;2022-08-25T03:06:43;21.50;99.90
5554;DHT22;2800;49.528;8.666;2022-08-25T03:09:09;21.40;99.90
5554;DHT22;2800;49.528;8.666;2022-08-25T03:11:34;21.30;99.90
5554;DHT22;2800;49.528;8.666;2022-08-25T03:14:03;21.30;99.90
5554;DHT22;2800;49.528;8.666;2022-08-25T03:16:29;21.30;99.90
5554;DHT22;2800;49.528;8.666;2022-08-25T03:18:55;21.20;99.90
5554;DHT22;2800;49.528;8.666;2022-08-25T03:21:20;21.20;99.90
5554;DHT22;2800;49.528;8.666;2022-08-25T03:23:46;21.20;99.90
5554;DHT22;2800;49.528;8.666;2022-08-25T03:26:11;21.20;99.90
5554;DHT22;2800;49.528;8.666;2022-08-25T03:28:56;21.20;99.90
5554;DHT22;2800;49.528;8.666;2022-08-25T03:31:23;21.10;99.90
5554;DHT22;2800;49.528;8.666;2022-08-25T03:33:50;21.00;99.90
5554;DHT22;2800;49.528;8.666;2022-08-25T03:36:15;20.90;99.90
5554;DHT22;2800;49.528;8.666;2022-08-25T03:38:41;20.90;99.90
5554;DHT22;2800;49.528;8.666;2022-08-25T03:41:16;20.80;99.90
5554;DHT22;2800;49.528;8.666;2022-08-25T03:43:42;20.80;99.90
5554;DHT22;2800;49.528;8.666;2022-08-25T03:46:08;20.80;99.90
5554;DHT22;2800;49.528;8.666;2022-08-25T03:48:34;20.70;99.90
5554;DHT22;2800;49.528;8.666;2022-08-25T03:51:00;20.50;99.90
5554;DHT22;2800;49.528;8.666;2022-08-25T03:53:25;20.50;99.90
5554;DHT22;2800;49.528;8.666;2022-08-25T03:55:51;20.50;99.90
5554;DHT22;2800;49.528;8.666;2022-08-25T03:58:16;20.50;99.90
5554;DHT22;2800;49.528;8.666;2022-08-25T04:00:42;20.50;99.90
5554;DHT22;2800;49.528;8.666;2022-08-25T04:03:08;20.40;99.90
5554;DHT22;2800;49.528;8.666;2022-08-25T04:05:34;20.40;99.90
5554;DHT22;2800;49.528;8.666;2022-08-25T04:07:59;20.30;99.90
5554;DHT22;2800;49.528;8.666;2022-08-25T04:10:26;20.10;99.90
5554;DHT22;2800;49.528;8.666;2022-08-25T04:12:51;20.00;99.90
5554;DHT22;2800;49.528;8.666;2022-08-25T04:15:17;20.00;99.90
5554;DHT22;2800;49.528;8.666;2022-08-25T04:17:42;20.00;99.90
5554;DHT22;2800;49.528;8.666;2022-08-25T04:20:10;20.10;99.90
5554;DHT22;2800;49.528;8.666;2022-08-25T04:22:36;20.10;99.90
5554;DHT22;2800;49.528;8.666;2022-08-25T04:25:04;20.10;99.90
5554;DHT22;2800;49.528;8.666;2022-08-25T04:27:29;20.10;99.90
5554;DHT22;2800;49.528;8.666;2022-08-25T04:29:55;20.20;99.90
5554;DHT22;2800;49.528;8.666;2022-08-25T04:32:21;20.20;99.90
5554;DHT22;2800;49.528;8.666;2022-08-25T04:34:46;20.20;99.90
5554;DHT22;2800;49.528;8.666;2022-08-25T04:37:13;20.10;99.90
5554;DHT22;2800;49.528;8.666;2022-08-25T04:39:38;19.90;99.90
5554;DHT22;2800;49.528;8.666;2022-08-25T04:42:04;20.00;99.90
5554;DHT22;2800;49.528;8.666;2022-08-25T04:44:30;20.00;99.90
5554;DHT22;2800;49.528;8.666;2022-08-25T04:46:56;19.90;99.90
5554;DHT22;2800;49.528;8.666;2022-08-25T04:49:21;19.80;99.90
5554;DHT22;2800;49.528;8.666;2022-08-25T04:51:47;19.80;99.90
5554;DHT22;2800;49.528;8.666;2022-08-25T04:54:15;19.80;99.90
5554;DHT22;2800;49.528;8.666;2022-08-25T04:56:46;19.80;99.90
5554;DHT22;2800;49.528;8.666;2022-08-25T04:59:13;19.70;99.90
5554;DHT22;2800;49.528;8.666;2022-08-25T05:01:39;19.70;99.90
5554;DHT22;2800;49.528;8.666;2022-08-25T05:04:08;19.60;99.90
5554;DHT22;2800;49.528;8.666;2022-08-25T05:06:34;19.50;99.90
5554;DHT22;2800;49.528;8.666;2022-08-25T05:09:00;19.60;99.90
5554;DHT22;2800;49.528;8.666;2022-08-25T05:11:27;19.40;99.90
5554;DHT22;2800;49.528;8.666;2022-08-25T05:13:54;19.40;99.90
5554;DHT22;2800;49.528;8.666;2022-08-25T05:16:21;19.40;99.90
5554;DHT22;2800;49.528;8.666;2022-08-25T05:18:48;19.40;99.90
5554;DHT22;2800;49.528;8.666;2022-08-25T05:21:16;19.40;99.90
5554;DHT22;2800;49.528;8.666;2022-08-25T05:23:42;19.50;99.90
5554;DHT22;2800;49.528;8.666;2022-08-25T05:26:22;19.60;99.90
5554;DHT22;2800;49.528;8.666;2022-08-25T05:28:49;19.70;99.90
5554;DHT22;2800;49.528;8.666;2022-08-25T05:31:16;19.70;99.90
5554;DHT22;2800;49.528;8.666;2022-08-25T05:33:41;19.90;99.90
5554;DHT22;2800;49.528;8.666;2022-08-25T05:36:08;19.90;99.90
5554;DHT22;2800;49.528;8.666;2022-08-25T05:38:35;20.20;99.90
5554;DHT22;2800;49.528;8.666;2022-08-25T05:41:04;20.80;99.90
5554;DHT22;2800;49.528;8.666;2022-08-25T05:43:31;21.30;99.90
5554;DHT22;2800;49.528;8.666;2022-08-25T05:45:57;21.80;99.90
5554;DHT22;2800;49.528;8.666;2022-08-25T05:48:24;22.30;99.90
5554;DHT22;2800;49.528;8.666;2022-08-25T05:50:58;22.70;99.90
5554;DHT22;2800;49.528;8.666;2022-08-25T05:53:25;23.00;99.90
5554;DHT22;2800;49.528;8.666;2022-08-25T05:55:52;23.20;99.90
5554;DHT22;2800;49.528;8.666;2022-08-25T05:58:19;23.30;99.90
5554;DHT22;2800;49.528;8.666;2022-08-25T06:00:45;23.60;99.90
5554;DHT22;2800;49.528;8.666;2022-08-25T06:03:11;23.90;99.90
5554;DHT22;2800;49.528;8.666;2022-08-25T06:05:36;24.10;99.90
5554;DHT22;2800;49.528;8.666;2022-08-25T06:08:03;24.20;99.90
5554;DHT22;2800;49.528;8.666;2022-08-25T06:10:28;24.40;99.90
5554;DHT22;2800;49.528;8.666;2022-08-25T06:12:54;24.60;99.90
5554;DHT22;2800;49.528;8.666;2022-08-25T06:15:21;24.70;99.90
5554;DHT22;2800;49.528;8.666;2022-08-25T06:17:48;24.80;99.90
5554;DHT22;2800;49.528;8.666;2022-08-25T06:20:22;24.80;99.90
5554;DHT22;2800;49.528;8.666;2022-08-25T06:22:49;24.70;99.90
5554;DHT22;2800;49.528;8.666;2022-08-25T06:25:17;24.90;99.90
5554;DHT22;2800;49.528;8.666;2022-08-25T06:27:43;24.90;99.90
5554;DHT22;2800;49.528;8.666;2022-08-25T06:30:12;25.00;99.90
5554;DHT22;2800;49.528;8.666;2022-08-25T06:32:41;25.30;99.90
5554;DHT22;2800;49.528;8.666;2022-08-25T06:35:10;25.60;99.90
5554;DHT22;2800;49.528;8.666;2022-08-25T06:37:36;25.70;99.90
5554;DHT22;2800;49.528;8.666;2022-08-25T06:40:03;25.90;99.90
5554;DHT22;2800;49.528;8.666;2022-08-25T06:42:29;26.00;99.90
5554;DHT22;2800;49.528;8.666;2022-08-25T06:44:55;26.20;99.90
5554;DHT22;2800;49.528;8.666;2022-08-25T06:47:20;26.40;99.90
5554;DHT22;2800;49.528;8.666;2022-08-25T06:49:46;26.50;99.90
5554;DHT22;2800;49.528;8.666;2022-08-25T06:52:12;26.90;99.90
5554;DHT22;2800;49.528;8.666;2022-08-25T06:54:38;26.90;99.90
5554;DHT22;2800;49.528;8.666;2022-08-25T06:57:05;27.10;99.90
5554;DHT22;2800;49.528;8.666;2022-08-25T06:59:31;27.10;99.90
5554;DHT22;2800;49.528;8.666;2022-08-25T07:01:57;26.90;99.90
5554;DHT22;2800;49.528;8.666;2022-08-25T07:04:23;26.80;99.90
5554;DHT22;2800;49.528;8.666;2022-08-25T07:06:49;26.70;99.90
5554;DHT22;2800;49.528;8.666;2022-08-25T07:09:15;26.60;99.90
5554;DHT22;2800;49.528;8.666;2022-08-25T07:11:41;26.80;99.90
5554;DHT22;2800;49.528;8.666;2022-08-25T07:14:09;26.70;99.90
5554;DHT22;2800;49.528;8.666;2022-08-25T07:16:36;26.70;99.90
5554;DHT22;2800;49.528;8.666;2022-08-25T07:19:03;26.50;99.90
5554;DHT22;2800;49.528;8.666;2022-08-25T07:21:31;26.30;99.90
5554;DHT22;2800;49.528;8.666;2022-08-25T07:23:57;26.20;99.90
5554;DHT22;2800;49.528;8.666;2022-08-25T07:26:27;26.10;99.90
5554;DHT22;2800;49.528;8.666;2022-08-25T07:28:53;26.10;99.90
5554;DHT22;2800;49.528;8.666;2022-08-25T07:31:19;26.10;99.90
5554;DHT22;2800;49.528;8.666;2022-08-25T07:33:45;26.50;99.90
5554;DHT22;2800;49.528;8.666;2022-08-25T07:36:30;26.40;99.90
5554;DHT22;2800;49.528;8.666;2022-08-25T07:38:56;26.10;99.90
5554;DHT22;2800;49.528;8.666;2022-08-25T07:41:22;26.20;99.90
5554;DHT22;2800;49.528;8.666;2022-08-25T07:43:48;26.20;99.90
5554;DHT22;2800;49.528;8.666;2022-08-25T07:46:13;26.30;99.90
5554;DHT22;2800;49.528;8.666;2022-08-25T07:48:39;26.60;99.90
5554;DHT22;2800;49.528;8.666;2022-08-25T07:51:12;26.70;99.90
5554;DHT22;2800;49.528;8.666;2022-08-25T07:53:39;27.00;99.90
5554;DHT22;2800;49.528;8.666;2022-08-25T07:56:15;27.10;99.90
5554;DHT22;2800;49.528;8.666;2022-08-25T07:58:41;27.30;99.90
5554;DHT22;2800;49.528;8.666;2022-08-25T08:01:16;28.10;99.90
5554;DHT22;2800;49.528;8.666;2022-08-25T08:03:42;27.50;99.90
5554;DHT22;2800;49.528;8.666;2022-08-25T08:06:10;27.80;99.90
5554;DHT22;2800;49.528;8.666;2022-08-25T08:08:38;27.70;99.90
5554;DHT22;2800;49.528;8.666;2022-08-25T08:11:04;27.50;99.90
5554;DHT22;2800;49.528;8.666;2022-08-25T08:13:29;27.20;99.90
5554;DHT22;2800;49.528;8.666;2022-08-25T08:15:56;27.60;99.90
5554;DHT22;2800;49.528;8.666;2022-08-25T08:18:21;27.90;99.90
5554;DHT22;2800;49.528;8.666;2022-08-25T08:20:47;28.10;99.90
5554;DHT22;2800;49.528;8.666;2022-08-25T08:23:14;28.80;99.90
5554;DHT22;2800;49.528;8.666;2022-08-25T08:25:40;28.70;99.90
5554;DHT22;2800;49.528;8.666;2022-08-25T08:28:06;29.10;99.90
5554;DHT22;2800;49.528;8.666;2022-08-25T08:30:32;29.10;99.90
5554;DHT22;2800;49.528;8.666;2022-08-25T08:32:57;29.40;99.90
5554;DHT22;2800;49.528;8.666;2022-08-25T08:35:23;30.40;99.90
5554;DHT22;2800;49.528;8.666;2022-08-25T08:37:48;30.70;99.90
5554;DHT22;2800;49.528;8.666;2022-08-25T08:40:15;30.30;99.90
5554;DHT22;2800;49.528;8.666;2022-08-25T08:43:03;29.60;99.90
5554;DHT22;2800;49.528;8.666;2022-08-25T08:45:57;29.80;99.90
5554;DHT22;2800;49.528;8.666;2022-08-25T08:48:33;29.50;99.90
5554;DHT22;2800;49.528;8.666;2022-08-25T08:51:20;29.20;99.90
5554;DHT22;2800;49.528;8.666;2022-08-25T08:56:35;29.40;99.90
5554;DHT22;2800;49.528;8.666;2022-08-25T08:59:09;29.50;99.90
5554;DHT22;2800;49.528;8.666;2022-08-25T09:01:52;29.60;99.90
5554;DHT22;2800;49.528;8.666;2022-08-25T09:04:36;29.10;99.90
5554;DHT22;2800;49.528;8.666;2022-08-25T09:07:10;29.30;99.90
5554;DHT22;2800;49.528;8.666;2022-08-25T09:09:39;29.80;99.90
5554;DHT22;2800;49.528;8.666;2022-08-25T09:18:05;31.10;99.90
5554;DHT22;2800;49.528;8.666;2022-08-25T09:23:31;31.70;99.90
5554;DHT22;2800;49.528;8.666;2022-08-25T09:26:28;32.00;99.90
5554;DHT22;2800;49.528;8.666;2022-08-25T09:29:07;31.30;99.90
5554;DHT22;2800;49.528;8.666;2022-08-25T09:31:37;31.10;99.90
5554;DHT22;2800;49.528;8.666;2022-08-25T09:34:10;31.80;99.90
5554;DHT22;2800;49.528;8.666;2022-08-25T09:36:36;32.30;99.90
5554;DHT22;2800;49.528;8.666;2022-08-25T09:39:02;32.10;99.90
5554;DHT22;2800;49.528;8.666;2022-08-25T09:41:50;31.30;99.90
5554;DHT22;2800;49.528;8.666;2022-08-25T09:44:30;31.50;99.90
5554;DHT22;2800;49.528;8.666;2022-08-25T09:47:22;31.40;99.90
5554;DHT22;2800;49.528;8.666;2022-08-25T09:49:58;32.10;99.90
5554;DHT22;2800;49.528;8.666;2022-08-25T09:54:54;32.20;99.90
5554;DHT22;2800;49.528;8.666;2022-08-25T09:57:30;32.40;99.90
5554;DHT22;2800;49.528;8.666;2022-08-25T09:59:55;31.90;99.90
5554;DHT22;2800;49.528;8.666;2022-08-25T10:02:23;31.90;99.90
5554;DHT22;2800;49.528;8.666;2022-08-25T10:04:50;32.80;99.90
5554;DHT22;2800;49.528;8.666;2022-08-25T10:07:27;33.40;99.90
5554;DHT22;2800;49.528;8.666;2022-08-25T10:09:59;32.90;99.90
5554;DHT22;2800;49.528;8.666;2022-08-25T10:17:47;32.00;99.90
5554;DHT22;2800;49.528;8.666;2022-08-25T10:22:45;32.60;99.90
5554;DHT22;2800;49.528;8.666;2022-08-25T10:25:13;32.80;99.90
5554;DHT22;2800;49.528;8.666;2022-08-25T10:27:59;33.40;99.90
5554;DHT22;2800;49.528;8.666;2022-08-25T10:30:50;33.20;99.90
5554;DHT22;2800;49.528;8.666;2022-08-25T10:36:14;32.60;99.90
5554;DHT22;2800;49.528;8.666;2022-08-25T10:41:33;34.00;99.90
5554;DHT22;2800;49.528;8.666;2022-08-25T10:49:54;34.50;99.90
5554;DHT22;2800;49.528;8.666;2022-08-25T10:52:42;34.60;99.90
5554;DHT22;2800;49.528;8.666;2022-08-25T11:00:31;34.60;99.90
5554;DHT22;2800;49.528;8.666;2022-08-25T11:05:46;34.40;99.90
5554;DHT22;2800;49.528;8.666;2022-08-25T11:11:20;34.70;99.90
5554;DHT22;2800;49.528;8.666;2022-08-25T11:14:08;33.50;99.90
5554;DHT22;2800;49.528;8.666;2022-08-25T11:16:39;32.50;99.90
5554;DHT22;2800;49.528;8.666;2022-08-25T11:19:19;33.50;99.90
5554;DHT22;2800;49.528;8.666;2022-08-25T11:21:52;33.80;99.90
5554;DHT22;2800;49.528;8.666;2022-08-25T11:24:41;34.30;99.90
5554;DHT22;2800;49.528;8.666;2022-08-25T11:27:30;34.70;99.90
5554;DHT22;2800;49.528;8.666;2022-08-25T11:30:09;34.80;99.90
5554;DHT22;2800;49.528;8.666;2022-08-25T11:32:36;34.30;99.90
5554;DHT22;2800;49.528;8.666;2022-08-25T11:35:06;35.30;99.90
5554;DHT22;2800;49.528;8.666;2022-08-25T11:37:33;35.20;99.90
5554;DHT22;2800;49.528;8.666;2022-08-25T11:42:47;35.00;99.90
5554;DHT22;2800;49.528;8.666;2022-08-25T11:45:57;36.40;99.90
5554;DHT22;2800;49.528;8.666;2022-08-25T11:51:13;38.30;99.90
5554;DHT22;2800;49.528;8.666;2022-08-25T12:00:00;36.90;99.90
5554;DHT22;2800;49.528;8.666;2022-08-25T12:04:59;34.20;99.90
5554;DHT22;2800;49.528;8.666;2022-08-25T12:07:28;33.30;99.90
5554;DHT22;2800;49.528;8.666;2022-08-25T12:12:35;32.50;99.90
5554;DHT22;2800;49.528;8.666;2022-08-25T12:29:55;31.90;99.90
5554;DHT22;2800;49.528;8.666;2022-08-25T12:32:05;32.10;99.90
5554;DHT22;2800;49.528;8.666;2022-08-25T12:34:53;31.90;99.90
5554;DHT22;2800;49.528;8.666;2022-08-25T12:37:28;32.00;99.90
5554;DHT22;2800;49.528;8.666;2022-08-25T12:40:00;33.80;99.90
5554;DHT22;2800;49.528;8.666;2022-08-25T12:42:34;35.00;99.90
5554;DHT22;2800;49.528;8.666;2022-08-25T12:47:52;35.70;99.90
5554;DHT22;2800;49.528;8.666;2022-08-25T12:50:28;36.50;99.90
5554;DHT22;2800;49.528;8.666;2022-08-25T12:55:51;36.90;99.90
5554;DHT22;2800;49.528;8.666;2022-08-25T12:58:18;34.70;99.90
5554;DHT22;2800;49.528;8.666;2022-08-25T13:01:11;33.50;99.90
5554;DHT22;2800;49.528;8.666;2022-08-25T13:03:56;32.70;99.90
5554;DHT22;2800;49.528;8.666;2022-08-25T13:11:37;31.70;99.90
5554;DHT22;2800;49.528;8.666;2022-08-25T13:14:16;31.70;99.90
5554;DHT22;2800;49.528;8.666;2022-08-25T13:16:58;32.10;99.90
5554;DHT22;2800;49.528;8.666;2022-08-25T13:19:28;33.10;99.90
5554;DHT22;2800;49.528;8.666;2022-08-25T13:21:54;33.30;99.90
5554;DHT22;2800;49.528;8.666;2022-08-25T13:24:25;33.10;99.90
5554;DHT22;2800;49.528;8.666;2022-08-25T13:27:00;32.80;99.90
5554;DHT22;2800;49.528;8.666;2022-08-25T13:29:29;32.60;99.90
5554;DHT22;2800;49.528;8.666;2022-08-25T13:32:01;32.40;99.90
5554;DHT22;2800;49.528;8.666;2022-08-25T13:34:30;32.30;99.90
5554;DHT22;2800;49.528;8.666;2022-08-25T13:37:05;31.70;99.90
5554;DHT22;2800;49.528;8.666;2022-08-25T13:39:49;31.70;99.90
5554;DHT22;2800;49.528;8.666;2022-08-25T13:42:16;31.80;99.90
5554;DHT22;2800;49.528;8.666;2022-08-25T13:44:42;31.90;99.90
5554;DHT22;2800;49.528;8.666;2022-08-25T13:47:13;31.90;99.90
5554;DHT22;2800;49.528;8.666;2022-08-25T13:49:44;31.90;99.90
5554;DHT22;2800;49.528;8.666;2022-08-25T13:52:26;31.60;99.90
5554;DHT22;2800;49.528;8.666;2022-08-25T13:54:59;32.50;99.90
5554;DHT22;2800;49.528;8.666;2022-08-25T13:57:27;32.30;99.90
5554;DHT22;2800;49.528;8.666;2022-08-25T13:59:59;31.80;99.90
5554;DHT22;2800;49.528;8.666;2022-08-25T14:02:45;31.60;99.90
5554;DHT22;2800;49.528;8.666;2022-08-25T14:05:12;31.30;99.90
5554;DHT22;2800;49.528;8.666;2022-08-25T14:07:38;31.20;99.90
5554;DHT22;2800;49.528;8.666;2022-08-25T14:10:08;31.20;99.90
5554;DHT22;2800;49.528;8.666;2022-08-25T14:12:44;31.20;99.90
5554;DHT22;2800;49.528;8.666;2022-08-25T14:17:47;32.30;99.90
5554;DHT22;2800;49.528;8.666;2022-08-25T14:20:22;33.40;99.90
5554;DHT22;2800;49.528;8.666;2022-08-25T14:22:54;33.20;99.90
5554;DHT22;2800;49.528;8.666;2022-08-25T14:25:20;32.80;99.90
5554;DHT22;2800;49.528;8.666;2022-08-25T14:27:57;33.50;99.90
5554;DHT22;2800;49.528;8.666;2022-08-25T14:30:23;34.50;99.90
5554;DHT22;2800;49.528;8.666;2022-08-25T14:32:50;35.50;99.90
5554;DHT22;2800;49.528;8.666;2022-08-25T14:35:16;34.90;99.90
5554;DHT22;2800;49.528;8.666;2022-08-25T14:37:42;35.20;99.90
5554;DHT22;2800;49.528;8.666;2022-08-25T14:40:09;35.40;99.90
5554;DHT22;2800;49.528;8.666;2022-08-25T14:42:36;35.10;99.90
5554;DHT22;2800;49.528;8.666;2022-08-25T14:45:02;35.90;99.90
5554;DHT22;2800;49.528;8.666;2022-08-25T14:47:28;37.00;99.90
5554;DHT22;2800;49.528;8.666;2022-08-25T14:49:55;37.60;99.90
5554;DHT22;2800;49.528;8.666;2022-08-25T14:52:26;37.20;99.90
5554;DHT22;2800;49.528;8.666;2022-08-25T14:54:52;35.60;99.90
5554;DHT22;2800;49.528;8.666;2022-08-25T14:57:18;34.60;99.90
5554;DHT22;2800;49.528;8.666;2022-08-25T14:59:44;33.80;99.90
5554;DHT22;2800;49.528;8.666;2022-08-25T15:02:12;32.80;99.90
5554;DHT22;2800;49.528;8.666;2022-08-25T15:04:43;32.50;99.90
5554;DHT22;2800;49.528;8.666;2022-08-25T15:07:11;32.00;99.90
5554;DHT22;2800;49.528;8.666;2022-08-25T15:09:56;31.80;99.90
5554;DHT22;2800;49.528;8.666;2022-08-25T15:12:22;32.10;99.90
5554;DHT22;2800;49.528;8.666;2022-08-25T15:14:47;32.10;99.90
5554;DHT22;2800;49.528;8.666;2022-08-25T15:17:13;32.60;99.90
5554;DHT22;2800;49.528;8.666;2022-08-25T15:19:40;33.20;99.90
5554;DHT22;2800;49.528;8.666;2022-08-25T15:22:06;32.90;99.90
5554;DHT22;2800;49.528;8.666;2022-08-25T15:24:31;32.70;99.90
5554;DHT22;2800;49.528;8.666;2022-08-25T15:26:59;32.20;99.90
5554;DHT22;2800;49.528;8.666;2022-08-25T15:29:28;32.00;99.90
5554;DHT22;2800;49.528;8.666;2022-08-25T15:31:54;31.90;99.90
5554;DHT22;2800;49.528;8.666;2022-08-25T15:34:20;31.70;99.90
5554;DHT22;2800;49.528;8.666;2022-08-25T15:36:46;31.60;99.90
5554;DHT22;2800;49.528;8.666;2022-08-25T15:39:12;31.50;99.90
5554;DHT22;2800;49.528;8.666;2022-08-25T15:41:37;31.40;99.90
5554;DHT22;2800;49.528;8.666;2022-08-25T15:44:04;31.40;99.90
5554;DHT22;2800;49.528;8.666;2022-08-25T15:46:31;31.40;99.90
5554;DHT22;2800;49.528;8.666;2022-08-25T15:48:57;31.40;99.90
5554;DHT22;2800;49.528;8.666;2022-08-25T15:51:24;31.40;99.90
5554;DHT22;2800;49.528;8.666;2022-08-25T15:53:50;31.50;99.90
5554;DHT22;2800;49.528;8.666;2022-08-25T15:56:15;31.40;99.90
5554;DHT22;2800;49.528;8.666;2022-08-25T15:58:47;31.40;99.90
5554;DHT22;2800;49.528;8.666;2022-08-25T16:01:21;31.20;99.90
5554;DHT22;2800;49.528;8.666;2022-08-25T16:03:48;31.10;99.90
5554;DHT22;2800;49.528;8.666;2022-08-25T16:06:14;31.10;99.90
5554;DHT22;2800;49.528;8.666;2022-08-25T16:08:40;31.10;99.90
5554;DHT22;2800;49.528;8.666;2022-08-25T16:11:24;31.20;99.90
5554;DHT22;2800;49.528;8.666;2022-08-25T16:13:51;31.30;99.90
5554;DHT22;2800;49.528;8.666;2022-08-25T16:16:18;31.00;99.90
5554;DHT22;2800;49.528;8.666;2022-08-25T16:18:44;30.80;99.90
5554;DHT22;2800;49.528;8.666;2022-08-25T16:21:12;30.90;99.90
5554;DHT22;2800;49.528;8.666;2022-08-25T16:23:39;30.90;99.90
5554;DHT22;2800;49.528;8.666;2022-08-25T16:26:07;30.90;99.90
5554;DHT22;2800;49.528;8.666;2022-08-25T16:28:37;30.80;99.90
5554;DHT22;2800;49.528;8.666;2022-08-25T16:31:03;30.80;99.90
5554;DHT22;2800;49.528;8.666;2022-08-25T16:33:29;30.80;99.90
5554;DHT22;2800;49.528;8.666;2022-08-25T16:36:08;30.80;99.90
5554;DHT22;2800;49.528;8.666;2022-08-25T16:38:35;31.00;99.90
5554;DHT22;2800;49.528;8.666;2022-08-25T16:41:23;31.50;99.90
5554;DHT22;2800;49.528;8.666;2022-08-25T16:43:49;31.90;99.90
5554;DHT22;2800;49.528;8.666;2022-08-25T16:46:18;31.70;99.90
5554;DHT22;2800;49.528;8.666;2022-08-25T16:48:44;31.70;99.90
5554;DHT22;2800;49.528;8.666;2022-08-25T16:51:13;31.70;99.90
5554;DHT22;2800;49.528;8.666;2022-08-25T16:53:39;31.60;99.90
5554;DHT22;2800;49.528;8.666;2022-08-25T16:56:24;31.40;99.90
5554;DHT22;2800;49.528;8.666;2022-08-25T16:58:57;31.30;99.90
5554;DHT22;2800;49.528;8.666;2022-08-25T17:01:24;31.30;99.90
5554;DHT22;2800;49.528;8.666;2022-08-25T17:03:53;31.10;99.90
5554;DHT22;2800;49.528;8.666;2022-08-25T17:06:20;31.10;99.90
5554;DHT22;2800;49.528;8.666;2022-08-25T17:08:46;31.10;99.90
5554;DHT22;2800;49.528;8.666;2022-08-25T17:11:21;31.00;99.90
5554;DHT22;2800;49.528;8.666;2022-08-25T17:13:49;31.00;99.90
5554;DHT22;2800;49.528;8.666;2022-08-25T17:16:16;30.90;99.90
5554;DHT22;2800;49.528;8.666;2022-08-25T17:18:42;30.90;99.90
5554;DHT22;2800;49.528;8.666;2022-08-25T17:21:13;30.80;99.90
5554;DHT22;2800;49.528;8.666;2022-08-25T17:23:41;30.70;99.90
5554;DHT22;2800;49.528;8.666;2022-08-25T17:26:08;30.50;99.90
5554;DHT22;2800;49.528;8.666;2022-08-25T17:28:34;30.40;99.90
5554;DHT22;2800;49.528;8.666;2022-08-25T17:31:00;30.40;99.90
5554;DHT22;2800;49.528;8.666;2022-08-25T17:33:26;30.30;99.90
5554;DHT22;2800;49.528;8.666;2022-08-25T17:35:55;30.20;99.90
5554;DHT22;2800;49.528;8.666;2022-08-25T17:38:24;29.80;99.90
5554;DHT22;2800;49.528;8.666;2022-08-25T17:40:55;29.40;99.90
5554;DHT22;2800;49.528;8.666;2022-08-25T17:43:21;28.90;99.90
5554;DHT22;2800;49.528;8.666;2022-08-25T17:45:47;28.90;99.90
5554;DHT22;2800;49.528;8.666;2022-08-25T17:48:13;28.50;99.90
5554;DHT22;2800;49.528;8.666;2022-08-25T17:50:40;28.30;99.90